Ana Sayfa
METAR-TAF:

METAR-TAF

Havaalanları :

Smith Field

Siloam Springs, Arkansas, Amerika Birleşik Devletleri

Enlem: 36-12N, Boylam: 094-29W, yükseklik: 300 m

Güncel hava durumu gözlemi

Rapor saat 10:56 UTC de 59 dakika önce yapıldı.
Rüzgar güneydan 4 kt
Sıcaklık 24°C
Nem 89%
Basınç 1014 hPa
Görüş mesafesi: 16.1 km
Açık gökyüzü

METAR: KSLG 251056Z AUTO 17004KT 10SM CLR 24/22 A2995 RMK AO2 SLP126 T02440222 PNO $

Saat: 06:55 (11:55 UTC)


TAF: eksik

4.000'den fazla havaalanı için hava durumu gözlemleri ve tahminleri (METAR ve TAF raporları).

Kullanılabilir istasyonlar harita üzerinde sarı ve kırmızı noktalarla gösterilir.

İstasyonun adını görmek için fareyi noktanın üzerinde gezdirin.

Sonrasında hava gözlem ve tahminlerini görmek için tıklayın.

Haritayı değiştirmek için: yaklaştırmak için siyah artı işaretli yeşil düğmeye ve uzaklaştırmak için de eksi işaretli düğmeye hızla tıklayın; bitişik haritalar için yeşil okları kullanın.


METAR-TAF: